createdAt,value
2018-03-18T00:01:11.343Z,158112.88
2018-03-18T00:03:38.983Z,158122.59
2018-03-18T00:06:06.587Z,158125.81
2018-03-18T00:08:34.202Z,158118.69
2018-03-18T00:11:01.796Z,158107.66
2018-03-18T00:13:29.410Z,158106.38
2018-03-18T00:15:57.028Z,158093.42
2018-03-18T00:18:24.626Z,158081.77
2018-03-18T00:20:52.262Z,158072.09
2018-03-18T00:23:19.903Z,158065.59
2018-03-18T00:25:47.526Z,158053.28
2018-03-18T00:28:15.138Z,158050.06
2018-03-18T00:30:42.745Z,158052.64
2018-03-18T00:33:10.390Z,158051.34
2018-03-18T00:35:37.955Z,158040.98
2018-03-18T00:38:05.526Z,158038.41
2018-03-18T00:40:33.297Z,158042.92
2018-03-18T00:43:00.937Z,158035.13
2018-03-18T00:45:28.526Z,158037.13
2018-03-18T00:47:56.161Z,158028.03
2018-03-18T00:50:23.770Z,158044.20
2018-03-18T00:52:51.357Z,158030.62
2018-03-18T00:55:18.982Z,158012.50
2018-03-18T00:57:46.548Z,158006.66
2018-03-18T01:00:14.207Z,158007.95
2018-03-18T01:02:41.784Z,158006.02
2018-03-18T01:05:09.355Z,157998.23
2018-03-18T01:07:36.979Z,157998.87
2018-03-18T01:10:04.579Z,158002.14
2018-03-18T01:12:32.178Z,158002.78
2018-03-18T01:14:59.819Z,157990.48
2018-03-18T01:17:27.430Z,157989.84
2018-03-18T01:19:55.075Z,157986.56
2018-03-18T01:22:22.664Z,157989.20
2018-03-18T01:24:50.229Z,157988.56
2018-03-18T01:27:17.867Z,157984.64
2018-03-18T01:29:45.462Z,157982.70
2018-03-18T01:32:13.042Z,157984.64
2018-03-18T01:34:40.804Z,157971.05
2018-03-18T01:37:08.492Z,157973.62
2018-03-18T01:39:36.134Z,157974.27
2018-03-18T01:42:03.777Z,157965.25
2018-03-18T01:44:31.429Z,157969.11
2018-03-18T01:46:59.094Z,157986.56
2018-03-18T01:49:26.879Z,157991.13
2018-03-18T01:51:54.448Z,157982.70
2018-03-18T01:54:22.016Z,157977.55
2018-03-18T01:56:49.626Z,157971.69
2018-03-18T01:59:17.277Z,157980.77
2018-03-18T02:01:44.851Z,157971.05
2018-03-18T02:04:12.415Z,157982.70
2018-03-18T02:06:40.053Z,157974.91
2018-03-18T02:09:07.641Z,157969.75
2018-03-18T02:11:35.225Z,157960.69
2018-03-18T02:14:02.831Z,157965.89
2018-03-18T02:16:30.525Z,157955.53
2018-03-18T02:18:58.095Z,157957.47
2018-03-18T02:21:25.682Z,157950.31
2018-03-18T02:23:53.339Z,157945.81
2018-03-18T02:26:20.922Z,157941.28
2018-03-18T02:28:48.506Z,157940.64
2018-03-18T02:31:16.146Z,157940.64
2018-03-18T02:33:43.729Z,157933.50
2018-03-18T02:36:11.288Z,157929.00
2018-03-18T02:38:38.930Z,157934.16
2018-03-18T02:41:06.583Z,157924.44
2018-03-18T02:43:34.158Z,157926.36
2018-03-18T02:46:01.772Z,157919.92
2018-03-18T02:48:29.378Z,157923.14
2018-03-18T02:50:56.951Z,157916.69
2018-03-18T02:53:24.592Z,157915.41
2018-03-18T02:55:52.170Z,157899.84
2018-03-18T02:58:19.793Z,157899.19
2018-03-18T03:00:47.414Z,157894.03
2018-03-18T03:03:15.214Z,157898.55
2018-03-18T03:05:42.864Z,157886.25
2018-03-18T03:08:10.507Z,157884.97
2018-03-18T03:10:38.112Z,157907.63
2018-03-18T03:13:05.759Z,157901.13
2018-03-18T03:15:33.363Z,157894.69
2018-03-18T03:18:00.933Z,157886.91
2018-03-18T03:20:28.550Z,157874.59
2018-03-18T03:22:56.140Z,157870.09
2018-03-18T03:25:23.766Z,157870.09
2018-03-18T03:27:51.354Z,157868.80
2018-03-18T03:30:18.956Z,157862.30
2018-03-18T03:32:46.583Z,157870.09
2018-03-18T03:35:14.202Z,157880.45
2018-03-18T03:37:41.841Z,157878.47
2018-03-18T03:40:09.442Z,157870.73
2018-03-18T03:42:37.040Z,157864.25
2018-03-18T03:45:04.667Z,157868.16
2018-03-18T03:47:32.227Z,157859.08
2018-03-18T03:49:59.892Z,157853.88
2018-03-18T03:52:27.459Z,157854.53
2018-03-18T03:54:55.046Z,157855.22
2018-03-18T03:57:22.719Z,157840.94
2018-03-18T03:59:50.396Z,157848.08
2018-03-18T04:02:18.174Z,157846.78
2018-03-18T04:04:45.848Z,157852.59
2018-03-18T04:07:13.518Z,157851.94
2018-03-18T04:09:41.197Z,157860.37
2018-03-18T04:12:08.786Z,157850.00
2018-03-18T04:14:36.445Z,157842.88
2018-03-18T04:17:04.093Z,157839.66
2018-03-18T04:19:31.655Z,157828.64
2018-03-18T04:21:59.247Z,157826.06
2018-03-18T04:24:26.887Z,157829.28
2018-03-18T04:26:54.538Z,157831.92
2018-03-18T04:29:22.190Z,157828.00
2018-03-18T04:31:49.811Z,157825.42
2018-03-18T04:34:17.383Z,157819.63
2018-03-18T04:36:44.979Z,157818.98
2018-03-18T04:39:12.621Z,157815.06
2018-03-18T04:41:40.214Z,157808.63
2018-03-18T04:44:07.788Z,157804.70
2018-03-18T04:46:35.406Z,157807.97
2018-03-18T04:49:02.979Z,157806.63
2018-03-18T04:51:30.551Z,157807.33
2018-03-18T04:53:58.166Z,157805.34
2018-03-18T04:56:25.743Z,157804.06
2018-03-18T04:58:53.386Z,157798.25
2018-03-18T05:01:20.969Z,157804.70
2018-03-18T05:03:48.571Z,157800.19
2018-03-18T05:06:16.213Z,157784.03
2018-03-18T05:08:43.816Z,157777.53
2018-03-18T05:11:11.417Z,157787.89
2018-03-18T05:13:39.039Z,157782.75
2018-03-18T05:16:06.653Z,157776.89
2018-03-18T05:18:34.223Z,157778.83
2018-03-18T05:21:01.859Z,157767.17
2018-03-18T05:23:29.479Z,157770.41
2018-03-18T05:25:57.047Z,157761.37
2018-03-18T05:28:24.678Z,157757.47
2018-03-18T05:30:52.265Z,157746.47
2018-03-18T05:33:19.892Z,157745.17
2018-03-18T05:35:47.463Z,157743.23
2018-03-18T05:38:15.173Z,157740.02
2018-03-18T05:40:42.774Z,157742.59
2018-03-18T05:43:10.390Z,157736.16
2018-03-18T05:45:38.039Z,157734.88
2018-03-18T05:48:05.662Z,157726.44
2018-03-18T05:50:33.239Z,157729.66
2018-03-18T05:53:00.891Z,157728.38
2018-03-18T05:55:28.477Z,157732.23
2018-03-18T05:57:56.055Z,157721.23
2018-03-18T06:00:23.720Z,157726.44
2018-03-18T06:02:51.319Z,157732.23
2018-03-18T06:05:19.032Z,157730.31
2018-03-18T06:07:46.659Z,157733.53
2018-03-18T06:10:14.331Z,157734.17
2018-03-18T06:12:41.893Z,157732.88
2018-03-18T06:15:09.564Z,157732.88
2018-03-18T06:17:37.319Z,157740.66
2018-03-18T06:20:05.125Z,157744.53
2018-03-18T06:22:32.726Z,157739.38
2018-03-18T06:25:00.493Z,157743.23
2018-03-18T06:27:28.183Z,157760.09
2018-03-18T06:29:55.751Z,157755.53
2018-03-18T06:32:23.404Z,157762.03
2018-03-18T06:34:50.999Z,157774.95
2018-03-18T06:37:18.719Z,157762.67
2018-03-18T06:39:46.295Z,157785.97
2018-03-18T06:42:13.982Z,157783.39
2018-03-18T06:44:41.662Z,157789.83
2018-03-18T06:47:09.251Z,157809.27
2018-03-18T06:49:36.847Z,157818.98
2018-03-18T06:52:04.515Z,157819.63
2018-03-18T06:54:32.087Z,157816.34
2018-03-18T06:56:59.674Z,157829.28
2018-03-18T06:59:27.279Z,157848.72
2018-03-18T07:01:54.870Z,157837.06
2018-03-18T07:04:22.495Z,157857.80
2018-03-18T07:06:50.063Z,157853.23
2018-03-18T07:09:17.623Z,157854.53
2018-03-18T07:11:45.271Z,157864.88
2018-03-18T07:14:12.850Z,157882.39
2018-03-18T07:16:40.429Z,157910.20
2018-03-18T07:19:08.075Z,157933.50
2018-03-18T07:21:35.682Z,157914.06
2018-03-18T07:24:03.247Z,157914.06
2018-03-18T07:26:31.021Z,157914.06
2018-03-18T07:28:58.606Z,157936.73
2018-03-18T07:31:26.231Z,157954.23
2018-03-18T07:33:53.793Z,157906.97
2018-03-18T07:36:21.356Z,157925.72
2018-03-18T07:38:49.012Z,157913.42
2018-03-18T07:41:16.599Z,157923.14
2018-03-18T07:43:44.213Z,157943.22
2018-03-18T07:46:11.879Z,157938.02
2018-03-18T07:48:39.444Z,157960.03
2018-03-18T07:51:07.034Z,157948.39
2018-03-18T07:53:34.633Z,157963.95
2018-03-18T07:56:02.219Z,157942.58
2018-03-18T07:58:29.846Z,157965.89
2018-03-18T08:00:57.546Z,157941.28
2018-03-18T08:03:25.122Z,157947.73
2018-03-18T08:05:52.699Z,157980.12
2018-03-18T08:08:20.376Z,157978.19
2018-03-18T08:10:47.966Z,158000.86
2018-03-18T08:13:15.579Z,158026.75
2018-03-18T08:15:43.230Z,158027.39
2018-03-18T08:18:10.795Z,158059.09
2018-03-18T08:20:38.370Z,158012.50
2018-03-18T08:23:05.982Z,158050.06
2018-03-18T08:25:33.623Z,158059.09
2018-03-18T08:28:01.234Z,158052.00
2018-03-18T08:30:28.799Z,158071.39
2018-03-18T08:32:56.470Z,158101.86
2018-03-18T08:35:24.039Z,158074.02
2018-03-18T08:37:51.626Z,158097.34
2018-03-18T08:40:19.283Z,158076.61
2018-03-18T08:42:46.868Z,158064.94
2018-03-18T08:45:14.461Z,158075.95
2018-03-18T08:47:42.050Z,158098.62
2018-03-18T08:50:09.702Z,158105.72
2018-03-18T08:52:37.318Z,158124.53
2018-03-18T08:55:04.974Z,158103.78
2018-03-18T08:57:32.600Z,158128.41
2018-03-18T09:00:00.173Z,158155.59
2018-03-18T09:02:27.759Z,158166.61
2018-03-18T09:04:55.373Z,158184.77
2018-03-18T09:07:22.962Z,158206.81
2018-03-18T09:09:50.590Z,158225.56
2018-03-18T09:12:18.166Z,158208.75
2018-03-18T09:14:45.786Z,158230.78
2018-03-18T09:17:13.365Z,158226.22
2018-03-18T09:19:41.008Z,158274.17
2018-03-18T09:22:08.612Z,158258.63
2018-03-18T09:24:36.228Z,158275.45
2018-03-18T09:27:03.925Z,158245.03
2018-03-18T09:29:31.525Z,158222.98
2018-03-18T09:31:59.110Z,158263.14
2018-03-18T09:34:26.759Z,158317.59
2018-03-18T09:36:54.506Z,158342.23
2018-03-18T09:39:22.110Z,158358.41
2018-03-18T09:41:49.759Z,158353.25
2018-03-18T09:44:17.335Z,158398.64
2018-03-18T09:46:44.905Z,158418.06
2018-03-18T09:49:12.626Z,158418.06
2018-03-18T09:51:40.243Z,158361.00
2018-03-18T09:54:07.844Z,158368.16
2018-03-18T09:56:35.472Z,158357.77
2018-03-18T09:59:03.118Z,158391.48
2018-03-18T10:01:30.896Z,158398.64
2018-03-18T10:03:58.552Z,158405.75
2018-03-18T10:06:26.160Z,158393.42
2018-03-18T10:08:53.733Z,158434.94
2018-03-18T10:11:21.378Z,158392.78
2018-03-18T10:13:49.071Z,158413.55
2018-03-18T10:16:16.644Z,158485.50
2018-03-18T10:18:44.419Z,158466.03
2018-03-18T10:21:12.084Z,158428.44
2018-03-18T10:23:39.664Z,158403.16
2018-03-18T10:26:07.289Z,158446.61
2018-03-18T10:28:34.894Z,158488.73
2018-03-18T10:31:02.547Z,158482.28
2018-03-18T10:33:30.542Z,158508.86
2018-03-18T10:35:58.167Z,158558.78
2018-03-18T10:38:25.794Z,158556.20
2018-03-18T10:40:53.418Z,158621.05
2018-03-18T10:43:20.986Z,158570.47
2018-03-18T10:45:48.575Z,158561.37
2018-03-18T10:48:16.206Z,158614.53
2018-03-18T10:50:43.799Z,158662.55
2018-03-18T10:53:11.428Z,158597.69
2018-03-18T10:55:39.024Z,158571.11
2018-03-18T10:58:06.651Z,158660.61
2018-03-18T11:00:39.814Z,158674.22
2018-03-18T11:03:07.435Z,158672.94
2018-03-18T11:05:35.015Z,158679.44
2018-03-18T11:08:03.520Z,158685.25
2018-03-18T11:10:31.079Z,158678.16
2018-03-18T11:12:58.747Z,158674.88
2018-03-18T11:15:26.333Z,158737.20
2018-03-18T11:17:53.926Z,158667.13
2018-03-18T11:20:21.567Z,158669.06
2018-03-18T11:22:49.175Z,158748.89
2018-03-18T11:25:16.827Z,158720.30
2018-03-18T11:27:44.396Z,158716.42
2018-03-18T11:30:12.023Z,158722.89
2018-03-18T11:32:39.648Z,158813.13
2018-03-18T11:35:07.218Z,158939.05
2018-03-18T11:37:35.054Z,158833.27
2018-03-18T11:40:02.674Z,158835.84
2018-03-18T11:42:30.291Z,158885.19
2018-03-18T11:44:58.051Z,158880.61
2018-03-18T11:47:25.861Z,158813.77
2018-03-18T11:49:53.531Z,158840.38
2018-03-18T11:52:21.314Z,158903.98
2018-03-18T11:54:49.092Z,158846.89
2018-03-18T11:57:16.682Z,158834.56
2018-03-18T11:59:44.267Z,158850.77
2018-03-18T12:02:11.913Z,158905.31
2018-03-18T12:04:39.631Z,158843.61
2018-03-18T12:07:07.223Z,158920.25
2018-03-18T12:09:34.808Z,158995.56
2018-03-18T12:12:02.424Z,159006.59
2018-03-18T12:14:29.991Z,158979.34
2018-03-18T12:16:57.669Z,159113.14
2018-03-18T12:19:25.374Z,159084.53
2018-03-18T12:21:52.936Z,159028.69
2018-03-18T12:24:20.591Z,159020.23
2018-03-18T12:26:48.195Z,158930.00
2018-03-18T12:29:15.830Z,158947.50
2018-03-18T12:31:43.428Z,159017.64
2018-03-18T12:34:11.026Z,159051.44
2018-03-18T12:36:38.627Z,158970.23
2018-03-18T12:39:06.328Z,159037.11
2018-03-18T12:41:33.903Z,158993.62
2018-03-18T12:44:01.477Z,158997.50
2018-03-18T12:46:29.112Z,158963.08
2018-03-18T12:48:56.684Z,158961.14
2018-03-18T12:51:24.392Z,159022.17
2018-03-18T12:53:52.065Z,158974.13
2018-03-18T12:56:19.675Z,159026.75
2018-03-18T12:58:47.317Z,159046.22
2018-03-18T13:01:14.883Z,159050.14
2018-03-18T13:03:42.671Z,159041.03
2018-03-18T13:06:10.343Z,159018.94
2018-03-18T13:08:38.018Z,159006.59
2018-03-18T13:11:05.586Z,159034.52
2018-03-18T13:13:33.230Z,159032.58
2018-03-18T13:16:00.828Z,159074.81
2018-03-18T13:18:28.516Z,159039.73
2018-03-18T13:20:56.273Z,159111.84
2018-03-18T13:23:23.828Z,159096.87
2018-03-18T13:25:51.397Z,159041.03
2018-03-18T13:28:19.029Z,159007.89
2018-03-18T13:30:46.794Z,158980.63
2018-03-18T13:33:14.378Z,159005.95
2018-03-18T13:35:42.024Z,159074.81
2018-03-18T13:38:09.584Z,159139.12
2018-03-18T13:40:37.168Z,159042.33
2018-03-18T13:43:04.919Z,159087.81
2018-03-18T13:45:32.476Z,159029.34
2018-03-18T13:48:00.051Z,159022.17
2018-03-18T13:50:27.703Z,159043.63
2018-03-18T13:52:55.358Z,159090.39
2018-03-18T13:55:22.931Z,159065.06
2018-03-18T13:57:50.811Z,159041.69
2018-03-18T14:00:18.436Z,159087.16
2018-03-18T14:02:46.046Z,159093.63
2018-03-18T14:05:14.354Z,159104.69
2018-03-18T14:07:41.986Z,159118.31
2018-03-18T14:10:09.576Z,159091.69
2018-03-18T14:12:37.174Z,159107.27
2018-03-18T14:15:04.831Z,159141.70
2018-03-18T14:17:32.525Z,159210.59
2018-03-18T14:20:00.196Z,159146.23
2018-03-18T14:22:27.803Z,159097.52
2018-03-18T14:24:55.359Z,159089.09
2018-03-18T14:27:23.188Z,159102.09
2018-03-18T14:29:50.808Z,159104.69
2018-03-18T14:32:18.494Z,159106.63
2018-03-18T14:34:46.120Z,159134.53
2018-03-18T14:37:13.739Z,159089.75
2018-03-18T14:39:41.308Z,159157.94
2018-03-18T14:42:08.872Z,159139.12
2018-03-18T14:44:36.482Z,159164.45
2018-03-18T14:47:04.082Z,159187.84
2018-03-18T14:49:31.724Z,159127.42
2018-03-18T14:51:59.287Z,159174.86
2018-03-18T14:54:26.839Z,159157.94
2018-03-18T14:56:54.456Z,159141.70
2018-03-18T14:59:22.020Z,159174.22
2018-03-18T15:01:49.579Z,159185.91
2018-03-18T15:04:17.190Z,159117.02
2018-03-18T15:06:44.771Z,159122.20
2018-03-18T15:09:12.373Z,159117.02
2018-03-18T15:11:40.004Z,159105.33
2018-03-18T15:14:07.556Z,159129.36
2018-03-18T15:16:35.169Z,159119.61
2018-03-18T15:19:02.796Z,159103.39
2018-03-18T15:21:30.355Z,159161.88
2018-03-18T15:23:57.953Z,159117.02
2018-03-18T15:26:25.571Z,159127.42
2018-03-18T15:28:53.147Z,159116.38
2018-03-18T15:31:20.759Z,159132.59
2018-03-18T15:33:48.383Z,159183.31
2018-03-18T15:36:16.115Z,159149.53
2018-03-18T15:38:43.675Z,159118.31
2018-03-18T15:41:11.287Z,159131.31
2018-03-18T15:43:38.923Z,159113.14
2018-03-18T15:46:06.484Z,159142.34
2018-03-18T15:48:34.106Z,159139.77
2018-03-18T15:51:01.675Z,159080.00
2018-03-18T15:53:29.259Z,159063.78
2018-03-18T15:55:56.900Z,159081.94
2018-03-18T15:58:24.483Z,159095.58
2018-03-18T16:00:52.149Z,159098.86
2018-03-18T16:03:19.824Z,159081.28
2018-03-18T16:05:47.506Z,159059.84
2018-03-18T16:08:15.318Z,159044.92
2018-03-18T16:10:43.050Z,159041.69
2018-03-18T16:13:10.611Z,159022.17
2018-03-18T16:15:38.190Z,159029.98
2018-03-18T16:18:05.788Z,159012.42
2018-03-18T16:20:33.449Z,159002.08
2018-03-18T16:23:01.067Z,159007.25
2018-03-18T16:25:28.650Z,159006.59
2018-03-18T16:27:56.234Z,159002.72
2018-03-18T16:30:35.512Z,158983.88
2018-03-18T16:33:03.127Z,158995.56
2018-03-18T16:35:30.714Z,159007.25
2018-03-18T16:37:58.367Z,159000.73
2018-03-18T16:40:26.009Z,158991.67
2018-03-18T16:42:53.800Z,158987.75
2018-03-18T16:45:21.460Z,158968.94
2018-03-18T16:47:49.040Z,158957.25
2018-03-18T16:50:16.635Z,158955.31
2018-03-18T16:52:44.606Z,158954.67
2018-03-18T16:55:12.256Z,158960.48
2018-03-18T16:57:39.823Z,158938.41
2018-03-18T17:00:07.435Z,158927.36
2018-03-18T17:02:34.999Z,158933.22
2018-03-18T17:05:02.672Z,158937.11
2018-03-18T17:07:30.335Z,158933.87
2018-03-18T17:09:58.021Z,158929.34
2018-03-18T17:12:25.697Z,158927.36
2018-03-18T17:14:53.378Z,158923.47
2018-03-18T17:17:20.976Z,158917.66
2018-03-18T17:19:48.538Z,158904.63
2018-03-18T17:22:16.401Z,158878.02
2018-03-18T17:24:43.978Z,158855.30
2018-03-18T17:27:11.535Z,158862.45
2018-03-18T17:29:39.326Z,158862.45
2018-03-18T17:32:07.102Z,158854.00
2018-03-18T17:34:34.877Z,158837.14
2018-03-18T17:37:02.541Z,158839.08
2018-03-18T17:39:30.108Z,158820.23
2018-03-18T17:41:57.906Z,158815.70
2018-03-18T17:44:37.346Z,158820.23
2018-03-18T17:47:16.797Z,158816.34
2018-03-18T17:49:56.138Z,158812.47
2018-03-18T17:52:35.607Z,158800.80
2018-03-18T17:55:15.251Z,158806.61
2018-03-18T17:57:42.846Z,158795.56
2018-03-18T18:00:10.624Z,158796.91
2018-03-18T18:02:38.396Z,158797.56
2018-03-18T18:05:06.275Z,158780.66
2018-03-18T18:07:33.871Z,158778.72
2018-03-18T18:10:01.522Z,158752.13
2018-03-18T18:12:29.355Z,158761.22
2018-03-18T18:14:56.992Z,158780.66
2018-03-18T18:17:24.603Z,158766.39
2018-03-18T18:19:52.249Z,158745.61
2018-03-18T18:22:19.819Z,158762.50
2018-03-18T18:24:47.682Z,158759.88
2018-03-18T18:27:15.280Z,158752.13
2018-03-18T18:29:42.871Z,158749.53
2018-03-18T18:32:10.546Z,158761.86
2018-03-18T18:34:38.147Z,158731.98
2018-03-18T18:37:05.857Z,158717.06
2018-03-18T18:39:33.637Z,158686.55
2018-03-18T18:42:01.471Z,158693.70
2018-03-18T18:44:29.124Z,158713.84
2018-03-18T18:46:56.859Z,158715.78
2018-03-18T18:49:24.427Z,158684.61
2018-03-18T18:51:52.210Z,158702.16
2018-03-18T18:54:19.834Z,158692.41
2018-03-18T18:56:47.674Z,158689.83
2018-03-18T18:59:15.332Z,158694.36
2018-03-18T19:01:43.016Z,158671.64
2018-03-18T19:04:10.603Z,158677.50
2018-03-18T19:06:38.199Z,158690.47
2018-03-18T19:09:06.043Z,158684.61
2018-03-18T19:11:33.766Z,158668.41
2018-03-18T19:14:01.500Z,158672.94
2018-03-18T19:16:29.272Z,158659.31
2018-03-18T19:18:57.051Z,158655.44
2018-03-18T19:21:24.634Z,158645.05
2018-03-18T19:23:52.509Z,158627.56
2018-03-18T19:26:20.066Z,158632.08
2018-03-18T19:28:47.754Z,158667.77
2018-03-18T19:31:15.431Z,158650.86
2018-03-18T19:33:43.209Z,158652.20
2018-03-18T19:36:10.827Z,158641.81
2018-03-18T19:38:38.663Z,158638.53
2018-03-18T19:41:06.437Z,158632.08
2018-03-18T19:43:34.098Z,158615.87
2018-03-18T19:46:01.888Z,158645.69
2018-03-18T19:48:29.547Z,158633.38
2018-03-18T19:50:57.252Z,158607.44
2018-03-18T19:53:24.851Z,158598.98
2018-03-18T19:55:52.411Z,158614.53
2018-03-18T19:58:20.175Z,158630.14
2018-03-18T20:00:47.943Z,158602.22
2018-03-18T20:03:15.722Z,158610.66
2018-03-18T20:05:43.507Z,158624.92
2018-03-18T20:08:11.280Z,158619.75
2018-03-18T20:10:38.939Z,158610.66
2018-03-18T20:13:06.615Z,158607.44
2018-03-18T20:15:34.230Z,158575.63
2018-03-18T20:18:02.007Z,158578.91
2018-03-18T20:20:29.651Z,158579.56
2018-03-18T20:22:57.325Z,158589.89
2018-03-18T20:25:25.001Z,158580.84
2018-03-18T20:27:52.749Z,158575.63
2018-03-18T20:30:20.456Z,158576.92
2018-03-18T20:32:48.030Z,158580.84
2018-03-18T20:35:15.694Z,158587.95
2018-03-18T20:37:43.332Z,158609.37
2018-03-18T20:40:10.931Z,158573.05
2018-03-18T20:42:38.501Z,158569.81
2018-03-18T20:45:06.107Z,158543.88
2018-03-18T20:47:33.779Z,158554.91
2018-03-18T20:50:07.576Z,158546.47
2018-03-18T20:52:35.264Z,158544.53
2018-03-18T20:55:03.051Z,158545.17
2018-03-18T20:57:30.829Z,158520.53
2018-03-18T20:59:58.504Z,158528.28
2018-03-18T21:02:26.390Z,158527.64
2018-03-18T21:04:54.161Z,158521.81
2018-03-18T21:07:21.746Z,158525.06
2018-03-18T21:09:49.392Z,158509.50
2018-03-18T21:12:17.019Z,158512.09
2018-03-18T21:14:44.766Z,158484.22
2018-03-18T21:17:12.541Z,158497.19
2018-03-18T21:19:40.266Z,158490.67
2018-03-18T21:22:07.854Z,158488.09
2018-03-18T21:24:35.484Z,158488.73
2018-03-18T21:27:03.119Z,158449.19
2018-03-18T21:29:30.719Z,158447.91
2018-03-18T21:31:58.348Z,158456.30
2018-03-18T21:34:38.971Z,158442.69
2018-03-18T21:37:06.672Z,158436.23
2018-03-18T21:39:34.248Z,158434.30
2018-03-18T21:42:01.891Z,158432.95
2018-03-18T21:44:29.671Z,158439.47
2018-03-18T21:46:57.394Z,158423.28
2018-03-18T21:49:25.021Z,158414.83
2018-03-18T21:51:52.682Z,158419.34
2018-03-18T21:54:20.362Z,158416.13
2018-03-18T21:56:47.946Z,158423.92
2018-03-18T21:59:15.562Z,158421.98
2018-03-18T22:01:43.182Z,158410.95
2018-03-18T22:04:10.972Z,158414.83
2018-03-18T22:06:38.626Z,158386.97
2018-03-18T22:09:06.193Z,158395.36
2018-03-18T22:11:34.031Z,158395.36
2018-03-18T22:14:01.665Z,158379.17
2018-03-18T22:16:29.234Z,158372.03
2018-03-18T22:18:57.027Z,158368.80
2018-03-18T22:21:24.619Z,158361.69
2018-03-18T22:23:52.241Z,158360.36
2018-03-18T22:26:20.050Z,158357.13
2018-03-18T22:28:47.726Z,158354.55
2018-03-18T22:31:15.389Z,158354.55
2018-03-18T22:33:42.977Z,158339.00
2018-03-18T22:36:10.860Z,158339.66
2018-03-18T22:38:38.519Z,158338.36
2018-03-18T22:41:06.243Z,158315.03
2018-03-18T22:43:33.886Z,158315.67
2018-03-18T22:46:01.494Z,158306.58
2018-03-18T22:48:29.228Z,158312.39
2018-03-18T22:50:56.906Z,158304.66
2018-03-18T22:53:24.469Z,158321.48
2018-03-18T22:55:52.228Z,158312.39
2018-03-18T22:58:20.039Z,158306.58
2018-03-18T23:00:47.734Z,158306.58
2018-03-18T23:03:15.392Z,158300.72
2018-03-18T23:05:43.171Z,158303.36
2018-03-18T23:08:10.906Z,158302.06
2018-03-18T23:10:38.633Z,158289.75
2018-03-18T23:13:06.247Z,158282.61
2018-03-18T23:15:33.925Z,158293.63
2018-03-18T23:18:01.621Z,158274.17
2018-03-18T23:20:29.316Z,158283.25
2018-03-18T23:22:57.100Z,158267.72
2018-03-18T23:25:24.699Z,158265.13
2018-03-18T23:27:52.327Z,158257.98
2018-03-18T23:30:19.907Z,158269.00
2018-03-18T23:32:47.492Z,158261.20
2018-03-18T23:35:15.169Z,158246.97
2018-03-18T23:37:42.756Z,158259.28
2018-03-18T23:40:10.418Z,158258.63
2018-03-18T23:42:38.145Z,158250.83
2018-03-18T23:45:05.744Z,158225.56
2018-03-18T23:47:33.354Z,158235.94
2018-03-18T23:50:01.002Z,158234.02
2018-03-18T23:52:28.744Z,158237.88
2018-03-18T23:54:56.468Z,158243.73
2018-03-18T23:57:24.255Z,158240.47
2018-03-18T23:59:51.969Z,158220.41
